createdAt,value
2022-08-30T00:02:03.254Z,82.16
2022-08-30T00:04:32.392Z,81.95
2022-08-30T00:06:59.909Z,82.19
2022-08-30T00:09:26.495Z,81.41
2022-08-30T00:11:53.464Z,82.81
2022-08-30T00:14:20.845Z,82.67
2022-08-30T00:16:47.610Z,82.12
2022-08-30T00:19:14.471Z,82.28
2022-08-30T00:21:41.885Z,82.22
2022-08-30T00:24:08.713Z,81.97
2022-08-30T00:26:35.341Z,81.96
2022-08-30T00:29:01.982Z,82.11
2022-08-30T00:31:28.780Z,83.09
2022-08-30T00:33:55.375Z,82.44
2022-08-30T00:36:22.286Z,82.69
2022-08-30T00:38:48.943Z,83.96
2022-08-30T00:41:16.124Z,83.95
2022-08-30T00:43:43.026Z,83.63
2022-08-30T00:46:10.595Z,83.57
2022-08-30T00:48:43.519Z,83.39
2022-08-30T00:51:12.114Z,84.29
2022-08-30T00:53:42.348Z,83.97
2022-08-30T00:56:09.354Z,84.70
2022-08-30T00:58:39.294Z,85.23
2022-08-30T01:01:07.512Z,86.12
2022-08-30T01:03:35.846Z,86.32
2022-08-30T01:06:05.038Z,85.66
2022-08-30T01:08:31.857Z,86.00
2022-08-30T01:10:58.597Z,87.45
2022-08-30T01:13:26.630Z,87.07
2022-08-30T01:15:54.011Z,87.07
2022-08-30T01:18:23.397Z,86.71
2022-08-30T01:21:20.567Z,85.89
2022-08-30T01:23:50.441Z,86.25
2022-08-30T01:26:22.152Z,89.05
2022-08-30T01:28:52.527Z,88.39
2022-08-30T01:31:19.909Z,87.34
2022-08-30T01:33:46.722Z,87.75
2022-08-30T01:36:14.872Z,87.87
2022-08-30T01:38:59.396Z,88.47
2022-08-30T01:41:36.517Z,88.01
2022-08-30T01:44:08.587Z,88.11
2022-08-30T01:46:39.099Z,87.98
2022-08-30T01:49:10.898Z,87.51
2022-08-30T01:51:38.639Z,88.97
2022-08-30T01:54:05.852Z,88.01
2022-08-30T01:56:32.629Z,87.68
2022-08-30T01:59:02.890Z,87.78
2022-08-30T02:01:32.570Z,87.73
2022-08-30T02:04:00.440Z,87.12
2022-08-30T02:06:27.554Z,87.08
2022-08-30T02:08:54.204Z,87.18
2022-08-30T02:11:21.277Z,87.47
2022-08-30T02:13:48.032Z,88.58
2022-08-30T02:16:18.318Z,88.64
2022-08-30T02:18:45.863Z,88.71
2022-08-30T02:21:12.833Z,88.81
2022-08-30T02:23:40.302Z,87.98
2022-08-30T02:26:08.428Z,88.01
2022-08-30T02:28:35.241Z,88.86
2022-08-30T02:31:10.310Z,89.06
2022-08-30T02:33:38.094Z,88.51
2022-08-30T02:36:08.393Z,88.44
2022-08-30T02:38:35.960Z,88.91
2022-08-30T02:41:02.663Z,89.28
2022-08-30T02:43:29.590Z,89.47
2022-08-30T02:45:56.224Z,90.44
2022-08-30T02:48:22.982Z,90.23
2022-08-30T02:50:52.521Z,91.55
2022-08-30T02:53:21.269Z,91.13
2022-08-30T02:55:49.203Z,91.05
2022-08-30T02:58:16.244Z,91.59
2022-08-30T03:00:43.161Z,91.27
2022-08-30T03:03:11.260Z,91.86
2022-08-30T03:05:39.745Z,91.89
2022-08-30T03:08:07.262Z,91.19
2022-08-30T03:10:34.053Z,93.30
2022-08-30T03:13:01.050Z,94.24
2022-08-30T03:15:28.599Z,94.47
2022-08-30T03:17:56.438Z,94.63
2022-08-30T03:20:24.071Z,93.42
2022-08-30T03:22:51.352Z,92.44
2022-08-30T03:25:18.524Z,92.09
2022-08-30T03:27:45.442Z,91.23
2022-08-30T03:30:13.328Z,90.99
2022-08-30T03:32:41.151Z,90.86
2022-08-30T03:35:11.324Z,92.56
2022-08-30T03:37:38.033Z,92.83
2022-08-30T03:40:07.456Z,92.10
2022-08-30T03:42:34.996Z,92.15
2022-08-30T03:45:02.981Z,91.37
2022-08-30T03:47:29.840Z,91.30
2022-08-30T03:49:57.694Z,91.32
2022-08-30T03:52:24.484Z,91.58
2022-08-30T03:54:51.346Z,90.96
2022-08-30T03:57:20.135Z,90.46
2022-08-30T03:59:47.317Z,89.51
2022-08-30T04:02:14.019Z,90.08
2022-08-30T04:04:40.680Z,89.80
2022-08-30T04:07:07.581Z,90.28
2022-08-30T04:09:34.357Z,90.45
2022-08-30T04:12:01.175Z,89.70
2022-08-30T04:14:28.026Z,91.64
2022-08-30T04:16:55.768Z,91.09
2022-08-30T04:19:22.566Z,90.89
2022-08-30T04:21:49.968Z,91.23
2022-08-30T04:24:16.729Z,91.24
2022-08-30T04:26:43.872Z,91.30
2022-08-30T04:29:13.408Z,91.50
2022-08-30T04:31:40.420Z,91.25
2022-08-30T04:34:07.177Z,91.57
2022-08-30T04:36:33.946Z,91.06
2022-08-30T04:39:00.834Z,92.23
2022-08-30T04:41:29.181Z,91.77
2022-08-30T04:43:56.111Z,91.29
2022-08-30T04:46:23.451Z,90.36
2022-08-30T04:48:50.241Z,91.74
2022-08-30T04:51:17.853Z,92.92
2022-08-30T04:53:46.992Z,92.47
2022-08-30T04:56:16.895Z,91.92
2022-08-30T04:58:47.589Z,92.00
2022-08-30T05:01:18.936Z,93.13
2022-08-30T05:03:48.377Z,91.91
2022-08-30T05:06:15.978Z,92.26
2022-08-30T05:08:46.101Z,92.20
2022-08-30T05:11:15.030Z,91.11
2022-08-30T05:13:41.801Z,91.13
2022-08-30T05:16:09.181Z,91.15
2022-08-30T05:18:36.860Z,90.53
2022-08-30T05:21:10.385Z,89.89
2022-08-30T05:23:38.254Z,90.05
2022-08-30T05:26:33.612Z,89.37
2022-08-30T05:29:01.611Z,89.84
2022-08-30T05:31:31.126Z,90.43
2022-08-30T05:33:58.047Z,89.48
2022-08-30T05:36:27.784Z,88.96
2022-08-30T05:38:55.713Z,87.83
2022-08-30T05:41:26.549Z,87.51
2022-08-30T05:43:55.572Z,87.29
2022-08-30T05:46:23.098Z,87.55
2022-08-30T05:48:50.435Z,88.62
2022-08-30T05:51:21.414Z,87.85
2022-08-30T05:53:49.539Z,87.34
2022-08-30T05:56:18.915Z,87.59
2022-08-30T05:58:45.791Z,87.48
2022-08-30T06:01:25.205Z,86.35
2022-08-30T06:03:53.804Z,86.29
2022-08-30T06:06:20.919Z,86.18
2022-08-30T06:08:48.663Z,85.75
2022-08-30T06:11:19.470Z,85.24
2022-08-30T06:13:48.948Z,85.16
2022-08-30T06:16:18.892Z,85.48
2022-08-30T06:18:48.104Z,85.52
2022-08-30T06:21:20.835Z,85.74
2022-08-30T06:23:49.553Z,85.59
2022-08-30T06:26:19.379Z,85.83
2022-08-30T06:28:48.509Z,86.28
2022-08-30T06:31:18.426Z,86.73
2022-08-30T06:33:46.799Z,86.92
2022-08-30T06:36:22.183Z,86.61
2022-08-30T06:38:54.439Z,86.96
2022-08-30T06:41:24.661Z,86.14
2022-08-30T06:43:52.084Z,85.87
2022-08-30T06:46:27.841Z,85.32
2022-08-30T06:48:56.294Z,84.58
2022-08-30T06:51:30.409Z,85.88
2022-08-30T06:53:58.304Z,85.65
2022-08-30T06:56:27.425Z,85.38
2022-08-30T06:58:55.185Z,84.74
2022-08-30T07:01:25.288Z,84.10
2022-08-30T07:03:52.378Z,83.48
2022-08-30T07:06:20.120Z,85.15
2022-08-30T07:08:47.724Z,83.96
2022-08-30T07:11:15.158Z,83.25
2022-08-30T07:13:42.142Z,82.49
2022-08-30T07:16:13.656Z,82.39
2022-08-30T07:18:56.221Z,82.48
2022-08-30T07:21:43.994Z,80.43
2022-08-30T07:24:12.090Z,80.77
2022-08-30T07:26:42.341Z,81.64
2022-08-30T07:29:10.688Z,79.76
2022-08-30T07:31:37.847Z,78.76
2022-08-30T07:34:06.224Z,79.41
2022-08-30T07:36:33.853Z,79.35
2022-08-30T07:39:01.839Z,77.64
2022-08-30T07:41:31.879Z,76.56
2022-08-30T07:43:58.963Z,75.37
2022-08-30T07:46:28.014Z,75.48
2022-08-30T07:48:55.404Z,72.61
2022-08-30T07:51:25.516Z,73.80
2022-08-30T07:53:52.960Z,72.30
2022-08-30T07:56:21.152Z,71.24
2022-08-30T07:58:49.201Z,70.85
2022-08-30T08:01:17.297Z,69.29
2022-08-30T08:03:44.935Z,68.51
2022-08-30T08:06:14.193Z,66.66
2022-08-30T08:08:41.800Z,66.97
2022-08-30T08:11:16.270Z,66.67
2022-08-30T08:13:48.957Z,66.08
2022-08-30T08:16:23.825Z,66.83
2022-08-30T08:18:51.979Z,66.73
2022-08-30T08:21:18.873Z,64.67
2022-08-30T08:23:45.667Z,65.68
2022-08-30T08:26:12.524Z,65.30
2022-08-30T08:28:39.719Z,62.89
2022-08-30T08:31:36.441Z,62.95
2022-08-30T08:34:06.168Z,62.92
2022-08-30T08:36:34.148Z,63.30
2022-08-30T08:39:01.985Z,61.77
2022-08-30T08:41:43.849Z,61.48
2022-08-30T08:44:34.614Z,61.12
2022-08-30T08:47:48.062Z,60.92
2022-08-30T08:50:20.180Z,61.27
2022-08-30T08:53:45.507Z,59.58
2022-08-30T08:56:16.621Z,60.57
2022-08-30T08:58:47.754Z,59.50
2022-08-30T09:01:18.247Z,57.97
2022-08-30T09:03:45.752Z,58.58
2022-08-30T09:07:06.574Z,56.74
2022-08-30T09:09:36.263Z,56.85
2022-08-30T09:12:05.123Z,57.26
2022-08-30T09:14:35.693Z,56.66
2022-08-30T09:17:06.858Z,56.49
2022-08-30T09:19:40.441Z,54.87
2022-08-30T09:22:29.186Z,54.82
2022-08-30T09:25:21.161Z,54.29
2022-08-30T09:27:49.758Z,52.94
2022-08-30T09:30:25.953Z,53.32
2022-08-30T09:33:02.113Z,51.94
2022-08-30T09:35:49.524Z,50.60
2022-08-30T09:38:25.119Z,51.66
2022-08-30T09:40:55.321Z,49.37
2022-08-30T09:43:28.405Z,49.59
2022-08-30T09:46:21.513Z,49.39
2022-08-30T09:48:48.758Z,48.95
2022-08-30T09:51:43.203Z,49.79
2022-08-30T09:54:31.970Z,49.57
2022-08-30T09:57:16.812Z,48.83
2022-08-30T09:59:51.493Z,48.62
2022-08-30T10:02:32.187Z,49.60
2022-08-30T10:05:13.530Z,48.72
2022-08-30T10:07:59.000Z,47.37
2022-08-30T10:10:47.623Z,47.65
2022-08-30T10:13:54.317Z,48.14
2022-08-30T10:16:46.060Z,47.96
2022-08-30T10:19:39.918Z,48.26
2022-08-30T10:22:31.937Z,47.90
2022-08-30T10:25:16.031Z,48.04
2022-08-30T10:27:59.717Z,44.51
2022-08-30T10:30:28.182Z,46.50
2022-08-30T10:33:00.811Z,45.44
2022-08-30T10:35:38.640Z,45.70
2022-08-30T10:38:14.054Z,45.31
2022-08-30T10:41:03.658Z,43.85
2022-08-30T10:43:39.192Z,46.27
2022-08-30T10:46:10.775Z,44.52
2022-08-30T10:48:41.505Z,43.94
2022-08-30T10:51:27.268Z,45.33
2022-08-30T10:54:04.883Z,44.96
2022-08-30T10:56:36.319Z,45.23
2022-08-30T10:59:05.414Z,44.72
2022-08-30T11:04:40.047Z,45.53
2022-08-30T11:07:49.316Z,43.16
2022-08-30T11:10:37.788Z,45.16
2022-08-30T11:13:26.189Z,44.25
2022-08-30T11:16:01.893Z,42.64
2022-08-30T11:18:51.923Z,43.84
2022-08-30T11:21:37.372Z,43.19
2022-08-30T11:24:07.794Z,43.58
2022-08-30T11:26:51.516Z,43.49
2022-08-30T11:29:53.028Z,42.48
2022-08-30T11:32:23.088Z,43.66
2022-08-30T11:34:56.895Z,43.47
2022-08-30T11:37:42.509Z,43.77
2022-08-30T11:40:48.413Z,43.45
2022-08-30T11:43:56.305Z,43.44
2022-08-30T11:46:41.801Z,42.54
2022-08-30T11:49:32.611Z,42.58
2022-08-30T11:52:28.496Z,42.17
2022-08-30T11:55:12.491Z,42.66
2022-08-30T11:57:50.891Z,41.42
2022-08-30T12:00:40.807Z,41.93
2022-08-30T12:03:37.219Z,40.92
2022-08-30T12:06:06.664Z,40.94
2022-08-30T12:08:45.570Z,41.18
2022-08-30T12:11:43.125Z,41.42
2022-08-30T12:14:41.438Z,40.96
2022-08-30T12:17:35.334Z,40.76
2022-08-30T12:20:02.129Z,40.24
2022-08-30T12:22:30.983Z,40.00
2022-08-30T12:24:58.112Z,40.48
2022-08-30T12:27:33.447Z,39.87
2022-08-30T12:30:07.646Z,40.14
2022-08-30T12:32:46.063Z,39.05
2022-08-30T12:35:21.325Z,39.88
2022-08-30T12:37:57.310Z,39.17
2022-08-30T12:40:25.575Z,38.43
2022-08-30T12:42:55.422Z,40.33
2022-08-30T12:45:25.908Z,40.15
2022-08-30T12:48:11.267Z,40.49
2022-08-30T12:50:53.723Z,40.14
2022-08-30T12:53:28.760Z,40.20
2022-08-30T12:56:10.748Z,39.83
2022-08-30T12:58:55.815Z,38.03
2022-08-30T13:01:33.335Z,39.19
2022-08-30T13:04:14.954Z,39.66
2022-08-30T13:06:49.045Z,39.34
2022-08-30T13:09:37.320Z,38.41
2022-08-30T13:12:07.407Z,39.80
2022-08-30T13:14:43.455Z,39.22
2022-08-30T13:17:19.482Z,40.08
2022-08-30T13:20:22.568Z,40.03
2022-08-30T13:23:07.931Z,39.71
2022-08-30T13:25:36.636Z,40.27
2022-08-30T13:28:04.838Z,39.64
2022-08-30T13:30:32.701Z,38.79
2022-08-30T13:33:01.495Z,38.40
2022-08-30T13:35:30.488Z,37.70
2022-08-30T13:37:57.837Z,38.18
2022-08-30T13:40:25.107Z,37.34
2022-08-30T13:42:52.059Z,36.48
2022-08-30T13:48:06.958Z,38.30
2022-08-30T13:50:33.561Z,36.67
2022-08-30T13:53:00.504Z,37.74
2022-08-30T13:55:28.253Z,38.33
2022-08-30T13:57:56.128Z,38.25
2022-08-30T14:00:25.167Z,38.90
2022-08-30T14:02:57.466Z,39.67
2022-08-30T14:11:11.982Z,40.02
2022-08-30T14:14:14.790Z,40.85
2022-08-30T14:16:27.825Z,40.31
2022-08-30T14:18:55.780Z,39.18
2022-08-30T14:21:24.849Z,40.14
2022-08-30T14:23:56.619Z,39.98
2022-08-30T14:26:32.388Z,40.28
2022-08-30T14:29:01.852Z,40.12
2022-08-30T14:31:30.286Z,39.90
2022-08-30T14:33:59.707Z,39.83
2022-08-30T14:36:26.446Z,39.95
2022-08-30T14:38:56.278Z,38.67
2022-08-30T14:41:23.035Z,38.70
2022-08-30T14:43:51.410Z,38.34
2022-08-30T14:46:18.205Z,37.51
2022-08-30T14:48:45.140Z,37.85
2022-08-30T14:51:18.622Z,36.34
2022-08-30T14:53:46.111Z,36.43
2022-08-30T14:56:16.476Z,38.18
2022-08-30T14:58:47.302Z,37.85
2022-08-30T15:01:14.551Z,38.25
2022-08-30T15:03:41.760Z,38.17
2022-08-30T15:06:09.379Z,38.75
2022-08-30T15:08:38.312Z,38.95
2022-08-30T15:11:14.414Z,38.93
2022-08-30T15:13:42.482Z,39.68
2022-08-30T15:16:19.401Z,39.82
2022-08-30T15:18:46.460Z,39.95
2022-08-30T15:21:13.540Z,40.03
2022-08-30T15:23:40.839Z,40.24
2022-08-30T15:26:08.979Z,39.90
2022-08-30T15:28:37.197Z,39.43
2022-08-30T15:31:08.629Z,39.80
2022-08-30T15:33:37.506Z,38.67
2022-08-30T15:36:05.814Z,39.89
2022-08-30T15:38:32.803Z,39.86
2022-08-30T15:41:03.707Z,38.81
2022-08-30T15:43:31.480Z,38.73
2022-08-30T15:46:16.159Z,39.84
2022-08-30T15:48:45.825Z,38.80
2022-08-30T15:51:13.887Z,39.54
2022-08-30T15:53:40.970Z,40.91
2022-08-30T15:56:07.942Z,42.14
2022-08-30T15:58:35.387Z,43.22
2022-08-30T16:01:02.561Z,44.12
2022-08-30T16:03:29.484Z,44.17
2022-08-30T16:05:57.481Z,44.15
2022-08-30T16:08:24.368Z,45.33
2022-08-30T16:10:52.743Z,44.83
2022-08-30T16:13:20.034Z,44.67
2022-08-30T16:15:47.037Z,43.65
2022-08-30T16:18:15.610Z,43.48
2022-08-30T16:20:44.352Z,43.99
2022-08-30T16:23:11.668Z,42.81
2022-08-30T16:25:40.603Z,44.61
2022-08-30T16:28:09.316Z,44.00
2022-08-30T16:30:36.731Z,43.97
2022-08-30T16:33:03.546Z,43.70
2022-08-30T16:35:30.228Z,44.39
2022-08-30T16:37:57.108Z,44.26
2022-08-30T16:40:24.076Z,44.34
2022-08-30T16:42:50.876Z,44.31
2022-08-30T16:45:17.966Z,45.08
2022-08-30T16:47:46.253Z,45.13
2022-08-30T16:50:13.116Z,45.36
2022-08-30T16:52:43.965Z,45.81
2022-08-30T16:55:11.098Z,47.05
2022-08-30T16:57:38.748Z,47.67
2022-08-30T17:02:55.954Z,49.79
2022-08-30T17:05:23.270Z,49.44
2022-08-30T17:07:50.468Z,49.93
2022-08-30T17:10:23.033Z,50.52
2022-08-30T17:12:50.331Z,50.82
2022-08-30T17:15:17.686Z,50.87
2022-08-30T17:17:44.660Z,50.46
2022-08-30T17:20:12.123Z,50.30
2022-08-30T17:22:38.823Z,51.42
2022-08-30T17:25:07.089Z,51.48
2022-08-30T17:27:34.248Z,50.97
2022-08-30T17:30:00.853Z,51.22
2022-08-30T17:32:27.637Z,52.15
2022-08-30T17:34:54.333Z,52.78
2022-08-30T17:37:21.023Z,51.98
2022-08-30T17:39:48.281Z,52.53
2022-08-30T17:42:15.871Z,52.23
2022-08-30T17:44:42.658Z,52.35
2022-08-30T17:47:09.794Z,53.85
2022-08-30T17:49:36.970Z,53.21
2022-08-30T17:52:04.652Z,54.50
2022-08-30T17:54:33.469Z,53.92
2022-08-30T17:57:00.827Z,52.94
2022-08-30T17:59:29.331Z,53.32
2022-08-30T18:02:00.196Z,53.76
2022-08-30T18:04:27.269Z,54.49
2022-08-30T18:06:57.587Z,54.64
2022-08-30T18:09:24.537Z,54.48
2022-08-30T18:11:56.339Z,54.36
2022-08-30T18:14:23.530Z,54.87
2022-08-30T18:16:54.342Z,54.94
2022-08-30T18:19:37.026Z,55.26
2022-08-30T18:22:13.137Z,55.96
2022-08-30T18:24:40.122Z,55.65
2022-08-30T18:27:07.539Z,56.16
2022-08-30T18:29:37.846Z,56.20
2022-08-30T18:32:05.728Z,55.74
2022-08-30T18:34:36.173Z,56.33
2022-08-30T18:37:02.740Z,56.22
2022-08-30T18:39:34.122Z,56.30
2022-08-30T18:42:02.619Z,56.50
2022-08-30T18:44:33.365Z,57.33
2022-08-30T18:47:03.678Z,57.35
2022-08-30T18:49:32.513Z,56.66
2022-08-30T18:52:00.688Z,57.88
2022-08-30T18:54:27.859Z,57.78
2022-08-30T18:56:54.815Z,58.08
2022-08-30T18:59:21.771Z,58.30
2022-08-30T19:01:49.666Z,58.39
2022-08-30T19:04:30.089Z,58.25
2022-08-30T19:07:02.731Z,59.46
2022-08-30T19:09:29.480Z,59.04
2022-08-30T19:11:56.141Z,59.84
2022-08-30T19:14:22.940Z,60.07
2022-08-30T19:16:49.861Z,59.69
2022-08-30T19:19:16.928Z,59.33
2022-08-30T19:21:43.724Z,59.65
2022-08-30T19:24:11.645Z,59.07
2022-08-30T19:26:38.647Z,59.21
2022-08-30T19:29:06.912Z,58.59
2022-08-30T19:31:34.144Z,59.47
2022-08-30T19:34:01.000Z,60.08
2022-08-30T19:36:29.013Z,59.27
2022-08-30T19:38:56.194Z,59.68
2022-08-30T19:41:24.285Z,60.74
2022-08-30T19:43:51.161Z,60.14
2022-08-30T19:46:17.870Z,59.76
2022-08-30T19:48:44.822Z,60.71
2022-08-30T19:51:13.769Z,60.48
2022-08-30T19:53:42.056Z,60.32
2022-08-30T19:56:09.027Z,60.79
2022-08-30T19:58:36.050Z,62.21
2022-08-30T20:01:10.572Z,62.23
2022-08-30T20:03:40.057Z,62.58
2022-08-30T20:06:07.401Z,63.17
2022-08-30T20:08:34.380Z,62.27
2022-08-30T20:11:01.228Z,62.62
2022-08-30T20:13:28.469Z,63.13
2022-08-30T20:16:00.880Z,62.41
2022-08-30T20:18:29.083Z,63.46
2022-08-30T20:20:55.971Z,63.65
2022-08-30T20:23:26.231Z,62.57
2022-08-30T20:24:23.218Z,49.13
2022-08-30T20:25:54.887Z,62.89
2022-08-30T20:28:22.461Z,64.56
2022-08-30T20:30:50.228Z,65.05
2022-08-30T20:33:18.091Z,64.52
2022-08-30T20:35:48.987Z,64.61
2022-08-30T20:38:22.657Z,65.10
2022-08-30T20:40:55.242Z,66.00
2022-08-30T20:43:25.939Z,66.12
2022-08-30T20:45:53.716Z,66.59
2022-08-30T20:48:20.706Z,66.12
2022-08-30T20:50:47.785Z,65.31
2022-08-30T20:53:14.382Z,65.67
2022-08-30T20:55:46.291Z,66.45
2022-08-30T20:58:14.445Z,65.67
2022-08-30T21:00:45.687Z,65.96
2022-08-30T21:03:28.035Z,66.18
2022-08-30T21:05:55.978Z,65.72
2022-08-30T21:08:24.891Z,65.69
2022-08-30T21:10:52.581Z,66.53
2022-08-30T21:13:19.227Z,68.17
2022-08-30T21:18:15.351Z,67.57
2022-08-30T21:20:42.386Z,67.13
2022-08-30T21:23:09.703Z,67.52
2022-08-30T21:25:43.974Z,67.19
2022-08-30T21:28:11.398Z,67.16
2022-08-30T21:30:38.684Z,68.17
2022-08-30T21:33:07.520Z,68.66
2022-08-30T21:35:56.496Z,69.44
2022-08-30T21:38:23.169Z,69.39
2022-08-30T21:40:50.002Z,69.67
2022-08-30T21:43:16.931Z,70.15
2022-08-30T21:45:45.106Z,69.72
2022-08-30T21:48:13.394Z,70.37
2022-08-30T21:50:41.784Z,69.85
2022-08-30T21:53:08.712Z,70.44
2022-08-30T21:55:36.696Z,70.15
2022-08-30T21:58:04.086Z,70.48
2022-08-30T22:00:31.866Z,70.99
2022-08-30T22:02:58.726Z,69.85
2022-08-30T22:05:25.637Z,70.53
2022-08-30T22:07:52.437Z,71.57
2022-08-30T22:10:21.220Z,71.12
2022-08-30T22:12:47.980Z,70.55
2022-08-30T22:15:15.666Z,71.12
2022-08-30T22:17:43.169Z,71.68
2022-08-30T22:20:10.469Z,71.45
2022-08-30T22:22:38.216Z,72.72
2022-08-30T22:25:05.640Z,73.98
2022-08-30T22:27:32.357Z,74.68
2022-08-30T22:29:59.292Z,74.60
2022-08-30T22:32:25.917Z,74.39
2022-08-30T22:34:52.696Z,74.60
2022-08-30T22:37:19.390Z,73.66
2022-08-30T22:39:46.292Z,75.05
2022-08-30T22:42:13.859Z,74.26
2022-08-30T22:44:41.050Z,73.61
2022-08-30T22:47:09.423Z,74.51
2022-08-30T22:49:36.436Z,74.43
2022-08-30T22:52:03.575Z,74.24
2022-08-30T22:54:31.467Z,75.06
2022-08-30T22:56:58.466Z,74.77
2022-08-30T22:59:31.275Z,74.44
2022-08-30T23:01:59.994Z,74.37
2022-08-30T23:04:26.720Z,74.31
2022-08-30T23:06:53.538Z,74.62
2022-08-30T23:09:21.222Z,75.86
2022-08-30T23:11:48.089Z,76.32
2022-08-30T23:14:15.081Z,74.96
2022-08-30T23:16:41.745Z,74.24
2022-08-30T23:19:08.510Z,74.20
2022-08-30T23:21:35.203Z,74.40
2022-08-30T23:24:20.487Z,75.17
2022-08-30T23:27:06.532Z,75.17
2022-08-30T23:29:53.281Z,75.06
2022-08-30T23:32:40.018Z,76.23
2022-08-30T23:35:29.403Z,75.72
2022-08-30T23:38:18.306Z,75.95
2022-08-30T23:41:03.504Z,74.87
2022-08-30T23:43:48.733Z,74.53
2022-08-30T23:46:34.141Z,75.38
2022-08-30T23:49:20.428Z,74.64
2022-08-30T23:52:05.788Z,75.44
2022-08-30T23:54:51.274Z,75.69
2022-08-30T23:57:36.817Z,75.33
